sensor_id;sensor_type;location;lat;lon;timestamp;pressure;altitude;pressure_sealevel;temperature;humidity
78745;BME280;68064;53.100;8.824;2023-05-07T00:00:04;102080.06;;;11.75;60.09
78745;BME280;68064;53.100;8.824;2023-05-07T00:01:05;102081.56;;;11.71;59.84
78745;BME280;68064;53.100;8.824;2023-05-07T00:02:06;102084.97;;;11.70;60.39
78745;BME280;68064;53.100;8.824;2023-05-07T00:03:07;102085.19;;;11.75;59.74
78745;BME280;68064;53.100;8.824;2023-05-07T00:04:08;102079.41;;;11.77;59.14
78745;BME280;68064;53.100;8.824;2023-05-07T00:05:09;102071.53;;;11.74;60.79
78745;BME280;68064;53.100;8.824;2023-05-07T00:06:10;102074.75;;;11.72;63.37
78745;BME280;68064;53.100;8.824;2023-05-07T00:07:11;102073.06;;;11.57;66.12
78745;BME280;68064;53.100;8.824;2023-05-07T00:08:12;102071.75;;;11.64;61.00
78745;BME280;68064;53.100;8.824;2023-05-07T00:09:13;102069.59;;;11.57;66.63
78745;BME280;68064;53.100;8.824;2023-05-07T00:10:16;102074.63;;;11.55;63.37
78745;BME280;68064;53.100;8.824;2023-05-07T00:11:17;102079.88;;;11.57;62.94
78745;BME280;68064;53.100;8.824;2023-05-07T00:12:18;102073.25;;;11.60;61.78
78745;BME280;68064;53.100;8.824;2023-05-07T00:13:19;102075.00;;;11.61;62.88
78745;BME280;68064;53.100;8.824;2023-05-07T00:14:20;102073.78;;;11.69;60.78
78745;BME280;68064;53.100;8.824;2023-05-07T00:15:21;102066.38;;;11.74;60.35
78745;BME280;68064;53.100;8.824;2023-05-07T00:16:22;102068.97;;;11.74;60.04
78745;BME280;68064;53.100;8.824;2023-05-07T00:17:23;102067.03;;;11.57;65.90
78745;BME280;68064;53.100;8.824;2023-05-07T00:18:24;102070.53;;;11.72;61.44
78745;BME280;68064;53.100;8.824;2023-05-07T00:19:25;102065.63;;;11.62;63.07
78745;BME280;68064;53.100;8.824;2023-05-07T00:20:26;102073.06;;;11.57;62.98
78745;BME280;68064;53.100;8.824;2023-05-07T00:21:27;102070.66;;;11.46;67.33
78745;BME280;68064;53.100;8.824;2023-05-07T00:22:29;102068.44;;;11.52;63.20
78745;BME280;68064;53.100;8.824;2023-05-07T00:23:30;102075.44;;;11.54;63.24
78745;BME280;68064;53.100;8.824;2023-05-07T00:24:31;102072.06;;;11.55;62.70
78745;BME280;68064;53.100;8.824;2023-05-07T00:25:33;102069.69;;;11.44;65.77
78745;BME280;68064;53.100;8.824;2023-05-07T00:26:34;102071.00;;;11.52;62.23
78745;BME280;68064;53.100;8.824;2023-05-07T00:27:35;102061.63;;;11.38;63.80
78745;BME280;68064;53.100;8.824;2023-05-07T00:28:36;102077.44;;;11.31;66.94
78745;BME280;68064;53.100;8.824;2023-05-07T00:29:37;102061.69;;;11.25;69.60
78745;BME280;68064;53.100;8.824;2023-05-07T00:30:38;102060.91;;;11.26;67.73
78745;BME280;68064;53.100;8.824;2023-05-07T00:31:39;102065.41;;;11.30;65.02
78745;BME280;68064;53.100;8.824;2023-05-07T00:32:40;102060.66;;;11.36;65.86
78745;BME280;68064;53.100;8.824;2023-05-07T00:33:41;102057.28;;;11.37;65.20
78745;BME280;68064;53.100;8.824;2023-05-07T00:34:43;102064.56;;;11.44;62.54
78745;BME280;68064;53.100;8.824;2023-05-07T00:35:43;102062.00;;;11.44;62.52
78745;BME280;68064;53.100;8.824;2023-05-07T00:36:44;102064.91;;;11.35;63.56
78745;BME280;68064;53.100;8.824;2023-05-07T00:37:45;102063.47;;;11.26;64.97
78745;BME280;68064;53.100;8.824;2023-05-07T00:38:46;102063.22;;;11.36;64.31
78745;BME280;68064;53.100;8.824;2023-05-07T00:39:48;102066.34;;;11.17;65.98
78745;BME280;68064;53.100;8.824;2023-05-07T00:40:50;102065.03;;;11.24;64.91
78745;BME280;68064;53.100;8.824;2023-05-07T00:41:51;102062.41;;;11.22;65.30
78745;BME280;68064;53.100;8.824;2023-05-07T00:42:52;102061.09;;;11.29;63.48
78745;BME280;68064;53.100;8.824;2023-05-07T00:43:53;102063.72;;;11.30;63.76
78745;BME280;68064;53.100;8.824;2023-05-07T00:44:54;102057.47;;;11.25;64.38
78745;BME280;68064;53.100;8.824;2023-05-07T00:45:55;102060.63;;;11.21;67.90
78745;BME280;68064;53.100;8.824;2023-05-07T00:46:56;102061.88;;;11.28;63.78
78745;BME280;68064;53.100;8.824;2023-05-07T00:47:59;102060.97;;;11.27;66.59
78745;BME280;68064;53.100;8.824;2023-05-07T00:49:01;102057.34;;;11.24;65.91
78745;BME280;68064;53.100;8.824;2023-05-07T00:50:03;102052.16;;;11.22;67.32
78745;BME280;68064;53.100;8.824;2023-05-07T00:51:04;102056.56;;;11.25;64.78
78745;BME280;68064;53.100;8.824;2023-05-07T00:52:06;102065.31;;;11.28;62.74
78745;BME280;68064;53.100;8.824;2023-05-07T00:53:07;102067.09;;;11.29;62.67
78745;BME280;68064;53.100;8.824;2023-05-07T00:54:08;102063.00;;;11.33;63.82
78745;BME280;68064;53.100;8.824;2023-05-07T00:55:09;102063.66;;;11.29;63.17
78745;BME280;68064;53.100;8.824;2023-05-07T00:56:12;102062.75;;;11.28;62.40
78745;BME280;68064;53.100;8.824;2023-05-07T00:57:13;102067.34;;;11.19;68.21
78745;BME280;68064;53.100;8.824;2023-05-07T00:58:16;102071.03;;;11.09;68.23
78745;BME280;68064;53.100;8.824;2023-05-07T00:59:17;102054.97;;;11.27;62.24
78745;BME280;68064;53.100;8.824;2023-05-07T01:00:18;102058.59;;;11.30;61.76
78745;BME280;68064;53.100;8.824;2023-05-07T01:01:19;102058.25;;;11.24;64.55
78745;BME280;68064;53.100;8.824;2023-05-07T01:02:20;102071.06;;;11.24;65.50
78745;BME280;68064;53.100;8.824;2023-05-07T01:03:22;102067.09;;;11.29;62.07
78745;BME280;68064;53.100;8.824;2023-05-07T01:04:23;102062.59;;;11.25;61.54
78745;BME280;68064;53.100;8.824;2023-05-07T01:05:24;102066.53;;;11.20;65.88
78745;BME280;68064;53.100;8.824;2023-05-07T01:06:27;102069.19;;;11.22;64.83
78745;BME280;68064;53.100;8.824;2023-05-07T01:07:30;102072.53;;;11.21;62.74
78745;BME280;68064;53.100;8.824;2023-05-07T01:08:32;102068.31;;;11.21;63.00
78745;BME280;68064;53.100;8.824;2023-05-07T01:09:33;102071.06;;;11.24;61.11
78745;BME280;68064;53.100;8.824;2023-05-07T01:10:35;102064.44;;;11.28;61.43
78745;BME280;68064;53.100;8.824;2023-05-07T01:11:39;102061.16;;;11.30;64.55
78745;BME280;68064;53.100;8.824;2023-05-07T01:12:41;102064.81;;;11.34;61.78
78745;BME280;68064;53.100;8.824;2023-05-07T01:13:43;102068.16;;;11.33;61.69
78745;BME280;68064;53.100;8.824;2023-05-07T01:14:44;102066.22;;;11.29;64.66
78745;BME280;68064;53.100;8.824;2023-05-07T01:15:45;102057.53;;;11.27;62.05
78745;BME280;68064;53.100;8.824;2023-05-07T01:16:46;102071.25;;;11.27;61.66
78745;BME280;68064;53.100;8.824;2023-05-07T01:17:47;102064.38;;;11.26;62.75
78745;BME280;68064;53.100;8.824;2023-05-07T01:18:49;102062.47;;;11.24;62.63
78745;BME280;68064;53.100;8.824;2023-05-07T01:19:50;102073.13;;;11.02;67.95
78745;BME280;68064;53.100;8.824;2023-05-07T01:20:51;102071.22;;;11.12;63.17
78745;BME280;68064;53.100;8.824;2023-05-07T01:22:00;102074.75;;;11.14;63.86
78745;BME280;68064;53.100;8.824;2023-05-07T01:23:03;102070.81;;;11.20;63.60
78745;BME280;68064;53.100;8.824;2023-05-07T01:24:05;102070.84;;;11.06;64.73
78745;BME280;68064;53.100;8.824;2023-05-07T01:25:07;102076.56;;;11.02;65.28
78745;BME280;68064;53.100;8.824;2023-05-07T01:26:08;102081.69;;;11.02;65.36
78745;BME280;68064;53.100;8.824;2023-05-07T01:27:09;102071.03;;;11.09;62.81
78745;BME280;68064;53.100;8.824;2023-05-07T01:28:10;102071.63;;;11.05;64.75
78745;BME280;68064;53.100;8.824;2023-05-07T01:29:11;102074.13;;;11.04;63.80
78745;BME280;68064;53.100;8.824;2023-05-07T01:30:12;102071.09;;;11.11;62.16
78745;BME280;68064;53.100;8.824;2023-05-07T01:31:14;102070.50;;;11.15;62.67
78745;BME280;68064;53.100;8.824;2023-05-07T01:32:19;102072.72;;;11.09;62.38
78745;BME280;68064;53.100;8.824;2023-05-07T01:33:22;102074.72;;;11.00;67.54
78745;BME280;68064;53.100;8.824;2023-05-07T01:34:25;102079.31;;;11.05;62.43
78745;BME280;68064;53.100;8.824;2023-05-07T01:35:30;102072.00;;;10.84;67.82
78745;BME280;68064;53.100;8.824;2023-05-07T01:36:33;102074.78;;;11.01;63.54
78745;BME280;68064;53.100;8.824;2023-05-07T01:37:35;102065.44;;;11.02;63.15
78745;BME280;68064;53.100;8.824;2023-05-07T01:38:39;102074.47;;;10.82;65.07
78745;BME280;68064;53.100;8.824;2023-05-07T01:39:42;102075.09;;;10.78;68.97
78745;BME280;68064;53.100;8.824;2023-05-07T01:40:43;102071.53;;;10.76;66.16
78745;BME280;68064;53.100;8.824;2023-05-07T01:41:44;102062.91;;;10.61;67.92
78745;BME280;68064;53.100;8.824;2023-05-07T01:42:47;102067.09;;;10.74;65.29
78745;BME280;68064;53.100;8.824;2023-05-07T01:43:50;102065.81;;;10.80;66.62
78745;BME280;68064;53.100;8.824;2023-05-07T01:44:51;102065.81;;;10.80;65.50
78745;BME280;68064;53.100;8.824;2023-05-07T01:45:52;102068.56;;;10.83;64.24
78745;BME280;68064;53.100;8.824;2023-05-07T01:46:54;102068.94;;;10.89;62.41
78745;BME280;68064;53.100;8.824;2023-05-07T01:47:55;102070.53;;;10.87;63.86
78745;BME280;68064;53.100;8.824;2023-05-07T01:48:57;102073.78;;;10.85;63.80
78745;BME280;68064;53.100;8.824;2023-05-07T01:49:58;102070.41;;;10.86;64.41
78745;BME280;68064;53.100;8.824;2023-05-07T01:50:59;102071.31;;;10.86;63.38
78745;BME280;68064;53.100;8.824;2023-05-07T01:52:01;102071.31;;;10.86;66.02
78745;BME280;68064;53.100;8.824;2023-05-07T01:53:02;102071.13;;;10.83;67.18
78745;BME280;68064;53.100;8.824;2023-05-07T01:54:04;102072.53;;;10.78;65.74
78745;BME280;68064;53.100;8.824;2023-05-07T01:55:06;102066.09;;;10.85;63.42
78745;BME280;68064;53.100;8.824;2023-05-07T01:56:08;102076.56;;;10.75;64.06
78745;BME280;68064;53.100;8.824;2023-05-07T01:57:09;102080.03;;;10.75;65.30
78745;BME280;68064;53.100;8.824;2023-05-07T01:58:10;102073.78;;;10.85;62.48
78745;BME280;68064;53.100;8.824;2023-05-07T01:59:11;102076.44;;;10.86;63.14
78745;BME280;68064;53.100;8.824;2023-05-07T02:00:12;102076.66;;;10.76;65.48
78745;BME280;68064;53.100;8.824;2023-05-07T02:01:14;102068.25;;;10.79;64.01
78745;BME280;68064;53.100;8.824;2023-05-07T02:02:15;102076.94;;;10.81;65.76
78745;BME280;68064;53.100;8.824;2023-05-07T02:03:16;102081.06;;;10.79;63.98
78745;BME280;68064;53.100;8.824;2023-05-07T02:04:17;102073.31;;;10.77;63.00
78745;BME280;68064;53.100;8.824;2023-05-07T02:05:18;102079.22;;;10.76;63.24
78745;BME280;68064;53.100;8.824;2023-05-07T02:06:19;102073.72;;;10.70;64.76
78745;BME280;68064;53.100;8.824;2023-05-07T02:07:19;102077.69;;;10.65;64.92
78745;BME280;68064;53.100;8.824;2023-05-07T02:08:20;102075.56;;;10.73;64.66
78745;BME280;68064;53.100;8.824;2023-05-07T02:09:23;102077.16;;;10.71;63.72
78745;BME280;68064;53.100;8.824;2023-05-07T02:10:24;102079.72;;;10.71;66.30
78745;BME280;68064;53.100;8.824;2023-05-07T02:11:25;102076.59;;;10.61;64.34
78745;BME280;68064;53.100;8.824;2023-05-07T02:12:26;102078.06;;;10.71;62.64
78745;BME280;68064;53.100;8.824;2023-05-07T02:13:29;102074.00;;;10.75;63.85
78745;BME280;68064;53.100;8.824;2023-05-07T02:14:30;102077.34;;;10.74;64.29
78745;BME280;68064;53.100;8.824;2023-05-07T02:15:31;102079.84;;;10.59;65.52
78745;BME280;68064;53.100;8.824;2023-05-07T02:16:32;102081.78;;;10.63;65.51
78745;BME280;68064;53.100;8.824;2023-05-07T02:17:33;102082.09;;;10.68;62.35
78745;BME280;68064;53.100;8.824;2023-05-07T02:18:34;102088.38;;;10.73;61.96
78745;BME280;68064;53.100;8.824;2023-05-07T02:19:35;102082.50;;;10.60;63.37
78745;BME280;68064;53.100;8.824;2023-05-07T02:20:36;102081.72;;;10.61;64.21
78745;BME280;68064;53.100;8.824;2023-05-07T02:21:37;102087.47;;;10.72;62.72
78745;BME280;68064;53.100;8.824;2023-05-07T02:22:38;102079.22;;;10.76;62.61
78745;BME280;68064;53.100;8.824;2023-05-07T02:23:39;102086.88;;;10.76;62.41
78745;BME280;68064;53.100;8.824;2023-05-07T02:24:42;102075.69;;;10.74;62.24
78745;BME280;68064;53.100;8.824;2023-05-07T02:25:43;102078.84;;;10.70;61.70
78745;BME280;68064;53.100;8.824;2023-05-07T02:26:44;102078.84;;;10.70;62.18
78745;BME280;68064;53.100;8.824;2023-05-07T02:27:45;102086.91;;;10.63;66.65
78745;BME280;68064;53.100;8.824;2023-05-07T02:28:46;102078.97;;;10.58;66.75
78745;BME280;68064;53.100;8.824;2023-05-07T02:29:47;102086.53;;;10.57;63.70
78745;BME280;68064;53.100;8.824;2023-05-07T02:30:48;102078.59;;;10.52;64.22
78745;BME280;68064;53.100;8.824;2023-05-07T02:31:49;102083.28;;;10.59;63.43
78745;BME280;68064;53.100;8.824;2023-05-07T02:32:51;102084.34;;;10.63;64.26
78745;BME280;68064;53.100;8.824;2023-05-07T02:33:52;102078.25;;;10.61;63.53
78745;BME280;68064;53.100;8.824;2023-05-07T02:34:53;102080.44;;;10.55;65.13
78745;BME280;68064;53.100;8.824;2023-05-07T02:35:54;102076.88;;;10.53;66.16
78745;BME280;68064;53.100;8.824;2023-05-07T02:36:55;102074.84;;;10.47;65.44
78745;BME280;68064;53.100;8.824;2023-05-07T02:37:56;102070.28;;;10.56;63.47
78745;BME280;68064;53.100;8.824;2023-05-07T02:38:57;102072.06;;;10.57;62.79
78745;BME280;68064;53.100;8.824;2023-05-07T02:40:00;102071.81;;;10.40;68.36
78745;BME280;68064;53.100;8.824;2023-05-07T02:41:01;102072.78;;;10.42;68.79
78745;BME280;68064;53.100;8.824;2023-05-07T02:42:02;102068.63;;;10.31;69.56
78745;BME280;68064;53.100;8.824;2023-05-07T02:43:03;102068.88;;;10.34;66.20
78745;BME280;68064;53.100;8.824;2023-05-07T02:44:04;102077.13;;;10.43;64.41
78745;BME280;68064;53.100;8.824;2023-05-07T02:45:06;102078.88;;;10.44;66.45
78745;BME280;68064;53.100;8.824;2023-05-07T02:46:09;102079.69;;;10.43;64.92
78745;BME280;68064;53.100;8.824;2023-05-07T02:47:10;102079.06;;;10.47;63.05
78745;BME280;68064;53.100;8.824;2023-05-07T02:48:11;102081.53;;;10.45;64.42
78745;BME280;68064;53.100;8.824;2023-05-07T02:49:12;102085.00;;;10.46;63.89
78745;BME280;68064;53.100;8.824;2023-05-07T02:50:13;102085.47;;;10.53;63.70
78745;BME280;68064;53.100;8.824;2023-05-07T02:51:14;102090.31;;;10.36;68.08
78745;BME280;68064;53.100;8.824;2023-05-07T02:52:15;102093.06;;;10.52;64.40
78745;BME280;68064;53.100;8.824;2023-05-07T02:53:16;102102.09;;;10.47;64.53
78745;BME280;68064;53.100;8.824;2023-05-07T02:54:17;102092.16;;;10.51;63.48
78745;BME280;68064;53.100;8.824;2023-05-07T02:55:20;102101.19;;;10.59;62.48
78745;BME280;68064;53.100;8.824;2023-05-07T02:56:21;102101.13;;;10.45;66.54
78745;BME280;68064;53.100;8.824;2023-05-07T02:57:22;102094.41;;;10.47;64.11
78745;BME280;68064;53.100;8.824;2023-05-07T02:58:23;102091.78;;;10.45;63.87
78745;BME280;68064;53.100;8.824;2023-05-07T02:59:24;102094.03;;;10.41;68.32
78745;BME280;68064;53.100;8.824;2023-05-07T03:00:25;102095.22;;;10.46;63.54
78745;BME280;68064;53.100;8.824;2023-05-07T03:01:27;102100.44;;;10.47;64.45
78745;BME280;68064;53.100;8.824;2023-05-07T03:02:28;102092.88;;;10.49;66.66
78745;BME280;68064;53.100;8.824;2023-05-07T03:03:29;102086.75;;;10.47;65.43
78745;BME280;68064;53.100;8.824;2023-05-07T03:04:30;102087.38;;;10.43;64.81
78745;BME280;68064;53.100;8.824;2023-05-07T03:05:30;102099.34;;;10.44;64.14
78745;BME280;68064;53.100;8.824;2023-05-07T03:06:32;102089.81;;;10.41;67.85
78745;BME280;68064;53.100;8.824;2023-05-07T03:07:33;102092.47;;;10.43;65.15
78745;BME280;68064;53.100;8.824;2023-05-07T03:08:34;102094.94;;;10.41;64.71
78745;BME280;68064;53.100;8.824;2023-05-07T03:09:35;102097.09;;;10.35;66.68
78745;BME280;68064;53.100;8.824;2023-05-07T03:10:37;102086.56;;;10.31;67.27
78745;BME280;68064;53.100;8.824;2023-05-07T03:11:38;102091.69;;;10.31;66.00
78745;BME280;68064;53.100;8.824;2023-05-07T03:12:39;102097.03;;;10.34;64.76
78745;BME280;68064;53.100;8.824;2023-05-07T03:13:40;102096.53;;;10.39;64.50
78745;BME280;68064;53.100;8.824;2023-05-07T03:14:41;102103.31;;;10.39;63.86
78745;BME280;68064;53.100;8.824;2023-05-07T03:15:43;102100.81;;;10.40;65.71
78745;BME280;68064;53.100;8.824;2023-05-07T03:16:44;102099.06;;;10.39;66.40
78745;BME280;68064;53.100;8.824;2023-05-07T03:17:45;102096.72;;;10.29;67.90
78745;BME280;68064;53.100;8.824;2023-05-07T03:18:46;102087.63;;;10.34;66.44
78745;BME280;68064;53.100;8.824;2023-05-07T03:19:47;102090.69;;;10.29;65.99
78745;BME280;68064;53.100;8.824;2023-05-07T03:20:48;102092.56;;;10.31;64.51
78745;BME280;68064;53.100;8.824;2023-05-07T03:21:49;102091.47;;;10.28;67.81
78745;BME280;68064;53.100;8.824;2023-05-07T03:22:50;102089.34;;;10.21;67.25
78745;BME280;68064;53.100;8.824;2023-05-07T03:23:51;102099.06;;;10.26;64.43
78745;BME280;68064;53.100;8.824;2023-05-07T03:24:52;102098.19;;;10.26;65.69
78745;BME280;68064;53.100;8.824;2023-05-07T03:25:55;102099.84;;;10.25;65.90
78745;BME280;68064;53.100;8.824;2023-05-07T03:26:56;102090.81;;;10.30;65.97
78745;BME280;68064;53.100;8.824;2023-05-07T03:27:57;102094.16;;;10.29;68.02
78745;BME280;68064;53.100;8.824;2023-05-07T03:28:58;102095.75;;;10.27;65.61
78745;BME280;68064;53.100;8.824;2023-05-07T03:29:59;102093.25;;;10.29;66.07
78745;BME280;68064;53.100;8.824;2023-05-07T03:31:00;102105.47;;;10.33;64.39
78745;BME280;68064;53.100;8.824;2023-05-07T03:32:01;102092.38;;;10.28;68.85
78745;BME280;68064;53.100;8.824;2023-05-07T03:33:02;102090.19;;;10.21;69.15
78745;BME280;68064;53.100;8.824;2023-05-07T03:34:04;102094.03;;;10.28;66.18
78745;BME280;68064;53.100;8.824;2023-05-07T03:35:05;102092.47;;;10.17;69.33
78745;BME280;68064;53.100;8.824;2023-05-07T03:36:06;102094.84;;;10.14;69.13
78745;BME280;68064;53.100;8.824;2023-05-07T03:37:07;102097.25;;;10.12;68.93
78745;BME280;68064;53.100;8.824;2023-05-07T03:38:08;102092.06;;;10.10;67.06
78745;BME280;68064;53.100;8.824;2023-05-07T03:39:09;102093.31;;;10.04;69.85
78745;BME280;68064;53.100;8.824;2023-05-07T03:40:11;102091.25;;;10.11;68.35
78745;BME280;68064;53.100;8.824;2023-05-07T03:41:14;102084.59;;;10.14;66.91
78745;BME280;68064;53.100;8.824;2023-05-07T03:42:15;102089.59;;;10.12;67.49
78745;BME280;68064;53.100;8.824;2023-05-07T03:43:16;102085.75;;;10.05;69.94
78745;BME280;68064;53.100;8.824;2023-05-07T03:44:17;102085.53;;;10.02;70.90
78745;BME280;68064;53.100;8.824;2023-05-07T03:45:18;102081.81;;;10.10;66.08
78745;BME280;68064;53.100;8.824;2023-05-07T03:46:19;102088.94;;;10.15;64.81
78745;BME280;68064;53.100;8.824;2023-05-07T03:47:20;102086.94;;;10.10;67.53
78745;BME280;68064;53.100;8.824;2023-05-07T03:48:21;102084.38;;;10.10;66.69
78745;BME280;68064;53.100;8.824;2023-05-07T03:49:22;102079.06;;;10.07;69.01
78745;BME280;68064;53.100;8.824;2023-05-07T03:50:24;102091.25;;;10.11;67.86
78745;BME280;68064;53.100;8.824;2023-05-07T03:51:25;102084.06;;;10.06;71.30
78745;BME280;68064;53.100;8.824;2023-05-07T03:52:26;102090.19;;;10.08;66.22
78745;BME280;68064;53.100;8.824;2023-05-07T03:53:27;102087.91;;;10.13;69.03
78745;BME280;68064;53.100;8.824;2023-05-07T03:54:29;102089.38;;;10.09;68.47
78745;BME280;68064;53.100;8.824;2023-05-07T03:55:30;102089.91;;;10.17;64.71
78745;BME280;68064;53.100;8.824;2023-05-07T03:56:33;102090.84;;;10.05;67.03
78745;BME280;68064;53.100;8.824;2023-05-07T03:57:34;102084.47;;;10.12;68.33
78745;BME280;68064;53.100;8.824;2023-05-07T03:58:35;102085.69;;;10.17;65.40
78745;BME280;68064;53.100;8.824;2023-05-07T03:59:36;102081.13;;;10.13;65.86
78745;BME280;68064;53.100;8.824;2023-05-07T04:00:37;102085.00;;;10.20;64.21
78745;BME280;68064;53.100;8.824;2023-05-07T04:01:38;102085.09;;;10.21;64.88
78745;BME280;68064;53.100;8.824;2023-05-07T04:02:39;102091.16;;;10.10;66.49
78745;BME280;68064;53.100;8.824;2023-05-07T04:03:40;102086.13;;;10.11;68.37
78745;BME280;68064;53.100;8.824;2023-05-07T04:04:41;102096.38;;;10.11;67.03
78745;BME280;68064;53.100;8.824;2023-05-07T04:05:42;102088.25;;;10.17;67.61
78745;BME280;68064;53.100;8.824;2023-05-07T04:06:44;102091.59;;;10.16;65.46
78745;BME280;68064;53.100;8.824;2023-05-07T04:07:44;102092.38;;;10.15;65.27
78745;BME280;68064;53.100;8.824;2023-05-07T04:08:45;102095.81;;;10.16;65.41
78745;BME280;68064;53.100;8.824;2023-05-07T04:09:46;102091.59;;;10.16;66.17
78745;BME280;68064;53.100;8.824;2023-05-07T04:10:48;102093.72;;;10.10;65.59
78745;BME280;68064;53.100;8.824;2023-05-07T04:11:50;102089.69;;;10.00;71.11
78745;BME280;68064;53.100;8.824;2023-05-07T04:12:53;102095.19;;;10.06;69.67
78745;BME280;68064;53.100;8.824;2023-05-07T04:13:54;102097.25;;;10.12;67.16
78745;BME280;68064;53.100;8.824;2023-05-07T04:14:55;102090.28;;;10.09;70.15
78745;BME280;68064;53.100;8.824;2023-05-07T04:15:56;102089.88;;;10.03;70.60
78745;BME280;68064;53.100;8.824;2023-05-07T04:16:58;102099.63;;;10.09;65.82
78745;BME280;68064;53.100;8.824;2023-05-07T04:17:58;102105.09;;;10.14;66.02
78745;BME280;68064;53.100;8.824;2023-05-07T04:18:59;102100.03;;;10.15;67.31
78745;BME280;68064;53.100;8.824;2023-05-07T04:20:01;102108.38;;;10.13;65.64
78745;BME280;68064;53.100;8.824;2023-05-07T04:21:03;102103.84;;;10.08;68.27
78745;BME280;68064;53.100;8.824;2023-05-07T04:22:04;102096.63;;;10.15;64.80
78745;BME280;68064;53.100;8.824;2023-05-07T04:23:05;102100.03;;;10.15;64.14
78745;BME280;68064;53.100;8.824;2023-05-07T04:24:06;102099.38;;;10.18;63.67
78745;BME280;68064;53.100;8.824;2023-05-07T04:25:09;102101.75;;;10.15;64.98
78745;BME280;68064;53.100;8.824;2023-05-07T04:26:10;102102.97;;;10.08;66.93
78745;BME280;68064;53.100;8.824;2023-05-07T04:27:12;102101.28;;;10.08;65.41
78745;BME280;68064;53.100;8.824;2023-05-07T04:28:13;102105.75;;;10.11;65.19
78745;BME280;68064;53.100;8.824;2023-05-07T04:29:14;102113.50;;;10.13;65.98
78745;BME280;68064;53.100;8.824;2023-05-07T04:30:15;102113.66;;;10.14;66.45
78745;BME280;68064;53.100;8.824;2023-05-07T04:31:16;102116.06;;;10.13;64.68
78745;BME280;68064;53.100;8.824;2023-05-07T04:32:18;102117.66;;;10.10;66.22
78745;BME280;68064;53.100;8.824;2023-05-07T04:33:19;102114.97;;;10.09;68.17
78745;BME280;68064;53.100;8.824;2023-05-07T04:34:20;102112.31;;;10.07;67.91
78745;BME280;68064;53.100;8.824;2023-05-07T04:35:21;102115.84;;;10.09;69.57
78745;BME280;68064;53.100;8.824;2023-05-07T04:36:22;102114.53;;;10.15;65.40
78745;BME280;68064;53.100;8.824;2023-05-07T04:37:25;102114.53;;;10.15;66.56
78745;BME280;68064;53.100;8.824;2023-05-07T04:38:26;102101.75;;;10.15;66.04
78745;BME280;68064;53.100;8.824;2023-05-07T04:39:27;102109.63;;;10.18;66.15
78745;BME280;68064;53.100;8.824;2023-05-07T04:40:28;102108.72;;;10.17;66.32
78745;BME280;68064;53.100;8.824;2023-05-07T04:41:30;102101.59;;;10.13;69.50
78745;BME280;68064;53.100;8.824;2023-05-07T04:42:32;102111.97;;;10.15;65.94
78745;BME280;68064;53.100;8.824;2023-05-07T04:43:33;102099.72;;;10.10;68.09
78745;BME280;68064;53.100;8.824;2023-05-07T04:44:35;102109.66;;;10.06;71.23
78745;BME280;68064;53.100;8.824;2023-05-07T04:45:35;102105.44;;;10.06;68.24
78745;BME280;68064;53.100;8.824;2023-05-07T04:46:36;102106.19;;;10.05;67.62
78745;BME280;68064;53.100;8.824;2023-05-07T04:47:38;102098.72;;;10.08;70.23
78745;BME280;68064;53.100;8.824;2023-05-07T04:48:39;102103.41;;;10.14;65.77
78745;BME280;68064;53.100;8.824;2023-05-07T04:49:40;102106.19;;;10.05;69.33
78745;BME280;68064;53.100;8.824;2023-05-07T04:50:41;102106.94;;;10.16;67.80
78745;BME280;68064;53.100;8.824;2023-05-07T04:51:42;102107.28;;;10.09;68.40
78745;BME280;68064;53.100;8.824;2023-05-07T04:52:43;102102.81;;;10.18;65.42
78745;BME280;68064;53.100;8.824;2023-05-07T04:53:44;102103.50;;;10.16;67.05
78745;BME280;68064;53.100;8.824;2023-05-07T04:54:45;102099.81;;;10.12;69.60
78745;BME280;68064;53.100;8.824;2023-05-07T04:55:46;102106.88;;;10.15;70.44
78745;BME280;68064;53.100;8.824;2023-05-07T04:56:47;102105.63;;;10.09;70.70
78745;BME280;68064;53.100;8.824;2023-05-07T04:57:50;102106.88;;;10.15;65.98
78745;BME280;68064;53.100;8.824;2023-05-07T04:58:51;102106.59;;;10.11;69.89
78745;BME280;68064;53.100;8.824;2023-05-07T04:59:52;102109.00;;;10.22;65.59
78745;BME280;68064;53.100;8.824;2023-05-07T05:00:53;102102.03;;;10.19;67.03
78745;BME280;68064;53.100;8.824;2023-05-07T05:01:54;102107.25;;;10.21;66.65
78745;BME280;68064;53.100;8.824;2023-05-07T05:02:55;102109.81;;;10.21;69.77
78745;BME280;68064;53.100;8.824;2023-05-07T05:03:56;102115.50;;;10.17;66.32
78745;BME280;68064;53.100;8.824;2023-05-07T05:04:57;102119.75;;;10.16;68.23
78745;BME280;68064;53.100;8.824;2023-05-07T05:05:58;102119.03;;;10.19;66.87
78745;BME280;68064;53.100;8.824;2023-05-07T05:06:59;102125.75;;;10.17;67.08
78745;BME280;68064;53.100;8.824;2023-05-07T05:08:01;102125.75;;;10.17;66.20
78745;BME280;68064;53.100;8.824;2023-05-07T05:09:02;102128.50;;;10.20;68.97
78745;BME280;68064;53.100;8.824;2023-05-07T05:10:04;102126.91;;;10.22;67.20
78745;BME280;68064;53.100;8.824;2023-05-07T05:11:06;102119.31;;;10.10;68.06
78745;BME280;68064;53.100;8.824;2023-05-07T05:12:07;102123.97;;;10.16;68.46
78745;BME280;68064;53.100;8.824;2023-05-07T05:13:09;102121.56;;;10.05;71.42
78745;BME280;68064;53.100;8.824;2023-05-07T05:14:10;102119.66;;;10.15;68.70
78745;BME280;68064;53.100;8.824;2023-05-07T05:15:12;102121.94;;;10.11;71.45
78745;BME280;68064;53.100;8.824;2023-05-07T05:16:13;102121.59;;;10.19;68.16
78745;BME280;68064;53.100;8.824;2023-05-07T05:17:14;102126.84;;;10.20;68.75
78745;BME280;68064;53.100;8.824;2023-05-07T05:18:36;102126.53;;;10.29;65.53
78745;BME280;68064;53.100;8.824;2023-05-07T05:19:37;102121.59;;;10.19;70.96
78745;BME280;68064;53.100;8.824;2023-05-07T05:20:38;102119.81;;;10.31;65.30